createdAt,value
2019-05-02T00:00:03.241Z,22.89
2019-05-02T00:01:03.227Z,22.89
2019-05-02T00:02:03.217Z,22.89
2019-05-02T00:03:04.458Z,22.89
2019-05-02T00:04:03.862Z,22.86
2019-05-02T00:05:03.180Z,22.81
2019-05-02T00:06:07.588Z,22.86
2019-05-02T00:07:03.161Z,22.84
2019-05-02T00:08:03.152Z,22.86
2019-05-02T00:09:03.871Z,22.86
2019-05-02T00:10:03.129Z,22.84
2019-05-02T00:11:03.119Z,22.84
2019-05-02T00:12:03.111Z,22.86
2019-05-02T00:13:03.099Z,22.86
2019-05-02T00:14:03.108Z,22.84
2019-05-02T00:15:03.594Z,22.89
2019-05-02T00:16:03.070Z,22.84
2019-05-02T00:17:03.052Z,22.86
2019-05-02T00:18:05.863Z,22.83
2019-05-02T00:19:03.053Z,22.88
2019-05-02T00:20:03.021Z,22.86
2019-05-02T00:21:03.248Z,22.88
2019-05-02T00:22:02.999Z,22.89
2019-05-02T00:23:02.989Z,22.78
2019-05-02T00:25:01.961Z,22.84
2019-05-02T00:26:02.954Z,22.88
2019-05-02T00:27:03.240Z,22.81
2019-05-02T00:28:02.937Z,22.91
2019-05-02T00:29:02.919Z,22.80
2019-05-02T00:30:02.932Z,22.88
2019-05-02T00:31:07.532Z,22.84
2019-05-02T00:32:02.895Z,22.84
2019-05-02T00:33:03.357Z,22.88
2019-05-02T00:34:02.872Z,22.81
2019-05-02T00:35:02.864Z,22.86
2019-05-02T00:36:02.856Z,22.84
2019-05-02T00:37:02.836Z,22.84
2019-05-02T00:38:03.834Z,22.86
2019-05-02T00:39:02.816Z,22.86
2019-05-02T00:40:02.822Z,22.86
2019-05-02T00:41:03.679Z,22.88
2019-05-02T00:42:12.543Z,22.83
2019-05-02T00:43:02.769Z,22.84
2019-05-02T00:44:06.015Z,22.83
2019-05-02T00:45:02.772Z,22.84
2019-05-02T00:46:02.755Z,22.81
2019-05-02T00:47:06.045Z,22.88
2019-05-02T00:48:02.719Z,22.83
2019-05-02T00:49:02.711Z,22.88
2019-05-02T00:50:06.248Z,22.83
2019-05-02T00:51:02.683Z,22.83
2019-05-02T00:52:03.129Z,22.83
2019-05-02T00:53:02.663Z,22.86
2019-05-02T00:54:02.652Z,22.84
2019-05-02T00:55:02.661Z,22.76
2019-05-02T00:56:05.145Z,22.77
2019-05-02T00:57:02.627Z,22.78
2019-05-02T00:58:02.607Z,22.83
2019-05-02T00:59:07.622Z,22.83
2019-05-02T01:00:02.604Z,22.76
2019-05-02T01:01:03.363Z,22.76
2019-05-02T01:02:05.469Z,22.78
2019-05-02T01:03:02.560Z,22.81
2019-05-02T01:04:02.541Z,22.84
2019-05-02T01:05:03.313Z,22.80
2019-05-02T01:06:02.519Z,22.78
2019-05-02T01:07:02.513Z,22.81
2019-05-02T01:08:03.003Z,22.81
2019-05-02T01:09:05.909Z,22.80
2019-05-02T01:10:05.353Z,22.76
2019-05-02T01:11:02.469Z,22.74
2019-05-02T01:12:03.226Z,22.81
2019-05-02T01:13:05.353Z,22.78
2019-05-02T01:14:02.441Z,22.81
2019-05-02T01:15:03.354Z,22.80
2019-05-02T01:16:02.421Z,22.76
2019-05-02T01:17:03.352Z,22.77
2019-05-02T01:18:06.120Z,22.81
2019-05-02T01:19:02.380Z,22.80
2019-05-02T01:20:02.393Z,22.81
2019-05-02T01:21:02.750Z,22.77
2019-05-02T01:22:02.359Z,22.77
2019-05-02T01:23:02.345Z,22.70
2019-05-02T01:24:02.971Z,22.78
2019-05-02T01:25:02.313Z,22.81
2019-05-02T01:26:02.327Z,22.80
2019-05-02T01:27:04.494Z,22.71
2019-05-02T01:28:02.285Z,22.77
2019-05-02T01:29:02.275Z,22.83
2019-05-02T01:30:06.071Z,22.80
2019-05-02T01:31:02.273Z,22.71
2019-05-02T01:32:02.241Z,22.78
2019-05-02T01:33:06.389Z,22.84
2019-05-02T01:34:02.239Z,22.74
2019-05-02T01:35:02.211Z,22.73
2019-05-02T01:36:06.513Z,22.83
2019-05-02T01:37:02.187Z,22.83
2019-05-02T01:39:03.036Z,22.68
2019-05-02T01:40:02.150Z,22.76
2019-05-02T01:41:02.167Z,22.76
2019-05-02T01:42:04.102Z,22.76
2019-05-02T01:43:02.123Z,22.73
2019-05-02T01:44:02.115Z,22.80
2019-05-02T01:45:02.098Z,22.78
2019-05-02T01:46:02.113Z,22.71
2019-05-02T01:47:02.097Z,22.74
2019-05-02T01:48:04.958Z,22.71
2019-05-02T01:49:02.053Z,22.74
2019-05-02T01:50:02.046Z,22.76
2019-05-02T01:51:04.685Z,22.73
2019-05-02T01:52:02.047Z,22.74
2019-05-02T01:53:02.018Z,22.70
2019-05-02T01:54:05.065Z,22.76
2019-05-02T01:55:01.991Z,22.73
2019-05-02T01:56:01.989Z,22.74
2019-05-02T01:57:04.004Z,22.76
2019-05-02T01:58:01.964Z,22.68
2019-05-02T01:59:01.970Z,22.68
2019-05-02T02:00:04.230Z,22.77
2019-05-02T02:01:01.929Z,22.68
2019-05-02T02:02:01.931Z,22.74
2019-05-02T02:03:04.127Z,22.70
2019-05-02T02:04:01.895Z,22.67
2019-05-02T02:05:01.901Z,22.65
2019-05-02T02:06:02.844Z,22.73
2019-05-02T02:07:01.883Z,22.68
2019-05-02T02:08:01.853Z,22.67
2019-05-02T02:09:03.360Z,22.70
2019-05-02T02:10:01.838Z,22.70
2019-05-02T02:11:01.821Z,22.70
2019-05-02T02:12:04.958Z,22.67
2019-05-02T02:13:04.706Z,22.67
2019-05-02T02:14:01.789Z,22.73
2019-05-02T02:15:01.783Z,22.71
2019-05-02T02:16:04.337Z,22.71
2019-05-02T02:17:01.769Z,22.67
2019-05-02T02:18:01.751Z,22.71
2019-05-02T02:19:03.931Z,22.71
2019-05-02T02:20:02.356Z,22.70
2019-05-02T02:21:01.709Z,22.71
2019-05-02T02:22:02.819Z,22.67
2019-05-02T02:23:01.697Z,22.71
2019-05-02T02:24:01.689Z,22.77
2019-05-02T02:25:02.911Z,22.68
2019-05-02T02:26:06.850Z,22.70
2019-05-02T02:27:01.640Z,22.68
2019-05-02T02:28:01.657Z,22.71
2019-05-02T02:29:03.221Z,22.67
2019-05-02T02:30:01.619Z,22.67
2019-05-02T02:31:04.618Z,22.77
2019-05-02T02:32:01.595Z,22.73
2019-05-02T02:34:00.568Z,22.71
2019-05-02T02:35:03.591Z,22.68
2019-05-02T02:36:01.545Z,22.70
2019-05-02T02:37:05.629Z,22.68
2019-05-02T02:38:04.364Z,22.71
2019-05-02T02:39:07.066Z,22.73
2019-05-02T02:40:04.340Z,22.68
2019-05-02T02:41:06.384Z,22.71
2019-05-02T02:42:01.486Z,22.67
2019-05-02T02:43:12.611Z,22.65
2019-05-02T02:44:02.915Z,22.63
2019-05-02T02:45:01.450Z,22.67
2019-05-02T02:46:01.448Z,22.67
2019-05-02T02:47:01.433Z,22.68
2019-05-02T02:48:02.537Z,22.70
2019-05-02T02:49:01.401Z,22.73
2019-05-02T02:50:02.679Z,22.68
2019-05-02T02:51:01.392Z,22.77
2019-05-02T02:52:04.747Z,22.76
2019-05-02T02:53:01.378Z,22.68
2019-05-02T02:54:03.925Z,22.70
2019-05-02T02:55:01.350Z,22.73
2019-05-02T02:56:03.540Z,22.65
2019-05-02T02:57:01.323Z,22.71
2019-05-02T02:58:04.755Z,22.73
2019-05-02T02:59:01.301Z,22.73
2019-05-02T03:00:07.819Z,22.68
2019-05-02T03:01:01.277Z,22.61
2019-05-02T03:02:09.110Z,22.62
2019-05-02T03:03:01.383Z,22.70
2019-05-02T03:04:02.048Z,22.67
2019-05-02T03:05:01.238Z,22.68
2019-05-02T03:06:05.396Z,22.68
2019-05-02T03:07:01.218Z,22.73
2019-05-02T03:08:05.351Z,22.70
2019-05-02T03:09:01.190Z,22.68
2019-05-02T03:10:06.160Z,22.63
2019-05-02T03:11:03.852Z,22.70
2019-05-02T03:12:02.100Z,22.67
2019-05-02T03:13:01.149Z,22.70
2019-05-02T03:14:07.205Z,22.63
2019-05-02T03:15:01.175Z,22.61
2019-05-02T03:16:07.244Z,22.62
2019-05-02T03:17:01.102Z,22.70
2019-05-02T03:18:02.140Z,22.70
2019-05-02T03:19:01.107Z,22.61
2019-05-02T03:20:04.051Z,22.67
2019-05-02T03:21:01.062Z,22.68
2019-05-02T03:22:03.841Z,22.68
2019-05-02T03:23:01.039Z,22.63
2019-05-02T03:24:05.428Z,22.61
2019-05-02T03:25:01.020Z,22.63
2019-05-02T03:26:01.006Z,22.62
2019-05-02T03:27:00.991Z,22.59
2019-05-02T03:28:00.990Z,22.67
2019-05-02T03:29:01.151Z,22.61
2019-05-02T03:30:00.971Z,22.62
2019-05-02T03:31:22.027Z,22.63
2019-05-02T03:32:14.939Z,22.59
2019-05-02T03:33:10.321Z,22.62
2019-05-02T03:34:01.486Z,22.53
2019-05-02T03:35:00.907Z,22.59
2019-05-02T03:36:00.896Z,22.63
2019-05-02T03:37:09.561Z,22.59
2019-05-02T03:38:00.878Z,22.59
2019-05-02T03:39:13.910Z,22.59
2019-05-02T03:40:00.924Z,22.59
2019-05-02T03:41:00.841Z,22.70
2019-05-02T03:42:02.989Z,22.65
2019-05-02T03:44:10.427Z,22.56
2019-05-02T03:45:04.747Z,22.59
2019-05-02T03:46:00.789Z,22.65
2019-05-02T03:47:02.346Z,22.61
2019-05-02T03:48:00.767Z,22.65
2019-05-02T03:49:07.224Z,22.68
2019-05-02T03:50:00.745Z,22.56
2019-05-02T03:51:04.890Z,22.62
2019-05-02T03:52:02.583Z,22.56
2019-05-02T03:53:00.711Z,22.56
2019-05-02T03:54:07.292Z,22.59
2019-05-02T03:56:10.462Z,22.61
2019-05-02T03:57:00.674Z,22.52
2019-05-02T03:58:13.099Z,22.62
2019-05-02T03:59:03.335Z,22.55
2019-05-02T04:00:00.659Z,22.56
2019-05-02T04:01:03.362Z,22.56
2019-05-02T04:02:01.350Z,22.56
2019-05-02T04:03:02.541Z,22.53
2019-05-02T04:04:00.600Z,22.55
2019-05-02T04:05:03.339Z,22.59
2019-05-02T04:06:00.568Z,22.59
2019-05-02T04:07:01.479Z,22.61
2019-05-02T04:08:00.551Z,22.58
2019-05-02T04:09:02.025Z,22.58
2019-05-02T04:10:00.543Z,22.58
2019-05-02T04:11:01.807Z,22.58
2019-05-02T04:12:00.502Z,22.58
2019-05-02T04:13:00.494Z,22.58
2019-05-02T04:14:00.485Z,22.58
2019-05-02T04:15:03.340Z,22.65
2019-05-02T04:16:00.464Z,22.56
2019-05-02T04:17:00.446Z,22.58
2019-05-02T04:18:00.439Z,22.59
2019-05-02T04:19:00.453Z,22.58
2019-05-02T04:20:00.420Z,22.56
2019-05-02T04:21:00.407Z,22.58
2019-05-02T04:22:07.889Z,22.59
2019-05-02T04:23:00.387Z,22.56
2019-05-02T04:24:10.338Z,22.56
2019-05-02T04:25:00.407Z,22.58
2019-05-02T04:26:00.429Z,22.52
2019-05-02T04:27:00.341Z,22.56
2019-05-02T04:28:05.969Z,22.53
2019-05-02T04:29:00.320Z,22.62
2019-05-02T04:30:09.783Z,22.58
2019-05-02T04:31:00.317Z,22.58
2019-05-02T04:32:04.500Z,22.52
2019-05-02T04:33:00.285Z,22.61
2019-05-02T04:34:00.273Z,22.53
2019-05-02T04:35:00.258Z,22.59
2019-05-02T04:36:00.260Z,22.56
2019-05-02T04:37:03.508Z,22.62
2019-05-02T04:38:02.736Z,22.53
2019-05-02T04:39:05.629Z,22.61
2019-05-02T04:40:03.449Z,22.53
2019-05-02T04:41:00.218Z,22.56
2019-05-02T04:42:05.494Z,22.56
2019-05-02T04:43:05.649Z,22.58
2019-05-02T04:44:01.546Z,22.59
2019-05-02T04:46:00.122Z,22.56
2019-05-02T04:47:11.136Z,22.55
2019-05-02T04:48:03.869Z,22.51
2019-05-02T04:49:00.105Z,22.55
2019-05-02T04:50:00.093Z,22.55
2019-05-02T04:51:10.266Z,22.58
2019-05-02T04:52:06.906Z,22.51
2019-05-02T04:53:00.096Z,22.49
2019-05-02T04:54:00.055Z,22.52
2019-05-02T04:55:08.319Z,22.56
2019-05-02T04:56:04.458Z,22.55
2019-05-02T04:57:02.293Z,22.55
2019-05-02T04:58:01.758Z,22.56
2019-05-02T04:59:01.855Z,22.56
2019-05-02T05:00:06.141Z,22.56
2019-05-02T05:01:01.906Z,22.52
2019-05-02T05:02:01.356Z,22.61
2019-05-02T05:02:59.948Z,22.52
2019-05-02T05:04:03.123Z,22.49
2019-05-02T05:04:59.937Z,22.49
2019-05-02T05:06:07.105Z,22.55
2019-05-02T05:07:01.052Z,22.58
2019-05-02T05:07:59.911Z,22.53
2019-05-02T05:09:03.961Z,22.55
2019-05-02T05:10:03.067Z,22.49
2019-05-02T05:10:59.866Z,22.58
2019-05-02T05:12:02.578Z,22.55
2019-05-02T05:12:59.842Z,22.56
2019-05-02T05:14:00.418Z,22.56
2019-05-02T05:15:00.499Z,22.52
2019-05-02T05:16:02.898Z,22.52
2019-05-02T05:16:59.818Z,22.58
2019-05-02T05:18:04.473Z,22.59
2019-05-02T05:19:00.082Z,22.61
2019-05-02T05:20:10.457Z,22.58
2019-05-02T05:20:59.753Z,22.58
2019-05-02T05:22:04.772Z,22.59
2019-05-02T05:22:59.752Z,22.67
2019-05-02T05:24:01.404Z,22.59
2019-05-02T05:24:59.713Z,22.59
2019-05-02T05:26:03.517Z,22.61
2019-05-02T05:27:00.191Z,22.55
2019-05-02T05:28:05.667Z,22.58
2019-05-02T05:28:59.675Z,22.58
2019-05-02T05:30:08.475Z,22.59
2019-05-02T05:30:59.646Z,22.58
2019-05-02T05:32:05.158Z,22.61
2019-05-02T05:32:59.646Z,22.59
2019-05-02T05:33:59.613Z,22.51
2019-05-02T05:35:03.467Z,22.59
2019-05-02T05:35:59.588Z,22.62
2019-05-02T05:37:03.494Z,22.55
2019-05-02T05:37:59.585Z,22.58
2019-05-02T05:39:58.548Z,22.49
2019-05-02T05:41:03.120Z,22.56
2019-05-02T05:41:59.524Z,22.58
2019-05-02T05:43:02.689Z,22.55
2019-05-02T05:43:59.503Z,22.58
2019-05-02T05:45:03.974Z,22.62
2019-05-02T05:46:09.245Z,22.63
2019-05-02T05:46:59.469Z,22.56
2019-05-02T05:48:02.329Z,22.55
2019-05-02T05:48:59.448Z,22.59
2019-05-02T05:50:01.210Z,22.56
2019-05-02T05:51:02.322Z,22.58
2019-05-02T05:52:02.270Z,22.58
2019-05-02T05:53:00.318Z,22.59
2019-05-02T05:54:02.946Z,22.61
2019-05-02T05:54:59.382Z,22.59
2019-05-02T05:56:02.492Z,22.70
2019-05-02T05:56:59.368Z,22.67
2019-05-02T05:58:03.151Z,22.70
2019-05-02T05:58:59.391Z,22.68
2019-05-02T06:00:03.997Z,22.68
2019-05-02T06:00:59.314Z,22.70
2019-05-02T06:02:05.486Z,22.73
2019-05-02T06:03:10.296Z,22.74
2019-05-02T06:03:59.294Z,22.68
2019-05-02T06:05:03.687Z,22.73
2019-05-02T06:05:59.263Z,22.68
2019-05-02T06:07:03.118Z,22.70
2019-05-02T06:07:59.272Z,22.74
2019-05-02T06:08:59.229Z,22.68
2019-05-02T06:10:02.338Z,22.70
2019-05-02T06:10:59.212Z,22.71
2019-05-02T06:11:59.225Z,22.68
2019-05-02T06:12:59.193Z,22.71
2019-05-02T06:13:59.174Z,22.68
2019-05-02T06:15:01.936Z,22.71
2019-05-02T06:16:02.850Z,22.65
2019-05-02T06:16:59.172Z,22.74
2019-05-02T06:18:00.074Z,22.74
2019-05-02T06:18:59.125Z,22.77
2019-05-02T06:19:59.107Z,22.73
2019-05-02T06:21:03.446Z,22.73
2019-05-02T06:21:59.113Z,22.80
2019-05-02T06:23:58.100Z,22.81
2019-05-02T06:24:59.064Z,22.80
2019-05-02T06:25:59.048Z,22.81
2019-05-02T06:26:59.036Z,22.78
2019-05-02T06:28:00.277Z,22.88
2019-05-02T06:28:59.029Z,22.89
2019-05-02T06:29:59.007Z,22.81
2019-05-02T06:31:02.233Z,22.84
2019-05-02T06:31:59.816Z,22.88
2019-05-02T06:32:58.967Z,22.92
2019-05-02T06:34:02.112Z,22.83
2019-05-02T06:34:58.949Z,22.76
2019-05-02T06:36:01.421Z,22.67
2019-05-02T06:37:01.819Z,22.59
2019-05-02T06:37:58.911Z,22.40
2019-05-02T06:39:57.918Z,22.18
2019-05-02T06:40:58.879Z,21.99
2019-05-02T06:41:58.911Z,21.88
2019-05-02T06:42:58.934Z,21.77
2019-05-02T06:43:58.869Z,21.72
2019-05-02T06:44:59.665Z,21.47
2019-05-02T06:45:58.829Z,21.40
2019-05-02T06:46:59.313Z,21.35
2019-05-02T06:48:01.157Z,21.40
2019-05-02T06:48:58.817Z,21.33
2019-05-02T06:50:01.104Z,21.33
2019-05-02T06:51:01.316Z,21.38
2019-05-02T06:51:58.759Z,21.43
2019-05-02T06:53:04.433Z,21.38
2019-05-02T06:53:58.772Z,21.38
2019-05-02T06:54:59.158Z,21.44
2019-05-02T06:55:58.739Z,21.53
2019-05-02T06:56:58.704Z,21.69
2019-05-02T06:58:02.978Z,21.69
2019-05-02T06:59:57.675Z,21.85
2019-05-02T07:00:59.178Z,21.94
2019-05-02T07:01:58.834Z,22.06
2019-05-02T07:02:58.638Z,22.15
2019-05-02T07:03:58.629Z,22.08
2019-05-02T07:04:58.659Z,22.18
2019-05-02T07:06:02.706Z,22.25
2019-05-02T07:06:59.731Z,22.28
2019-05-02T07:07:58.618Z,22.34
2019-05-02T07:08:59.701Z,22.33
2019-05-02T07:10:01.317Z,22.34
2019-05-02T07:11:01.551Z,22.41
2019-05-02T07:12:01.359Z,22.40
2019-05-02T07:13:10.138Z,22.51
2019-05-02T07:14:12.120Z,22.58
2019-05-02T07:15:01.513Z,22.58
2019-05-02T07:15:58.501Z,22.59
2019-05-02T07:16:58.482Z,22.53
2019-05-02T07:17:58.503Z,22.56
2019-05-02T07:18:58.463Z,22.65
2019-05-02T07:20:03.880Z,22.67
2019-05-02T07:20:58.446Z,22.70
2019-05-02T07:22:03.701Z,22.68
2019-05-02T07:22:58.429Z,22.71
2019-05-02T07:23:58.413Z,22.70
2019-05-02T07:25:01.797Z,22.74
2019-05-02T07:26:00.298Z,22.65
2019-05-02T07:26:58.383Z,22.74
2019-05-02T07:27:58.358Z,22.74
2019-05-02T07:28:58.360Z,22.68
2019-05-02T07:29:59.686Z,22.78
2019-05-02T07:30:58.339Z,22.77
2019-05-02T07:31:58.320Z,22.88
2019-05-02T07:33:01.142Z,22.86
2019-05-02T07:34:00.808Z,22.86
2019-05-02T07:34:58.855Z,22.84
2019-05-02T07:36:00.062Z,22.84
2019-05-02T07:36:58.291Z,22.88
2019-05-02T07:37:58.258Z,22.86
2019-05-02T07:39:05.020Z,22.86
2019-05-02T07:39:58.235Z,22.92
2019-05-02T07:40:58.215Z,22.96
2019-05-02T07:42:00.539Z,22.95
2019-05-02T07:42:58.224Z,22.98
2019-05-02T07:43:58.807Z,23.01
2019-05-02T07:44:58.184Z,23.01
2019-05-02T07:45:58.174Z,23.02
2019-05-02T07:47:02.487Z,23.07
2019-05-02T07:48:01.225Z,23.06
2019-05-02T07:48:58.150Z,23.07
2019-05-02T07:49:58.122Z,23.17
2019-05-02T07:50:58.123Z,23.11
2019-05-02T07:51:58.970Z,23.20
2019-05-02T07:52:58.145Z,23.18
2019-05-02T07:53:58.087Z,23.21
2019-05-02T07:55:01.222Z,23.14
2019-05-02T07:55:58.064Z,23.11
2019-05-02T07:56:58.076Z,23.25
2019-05-02T07:58:02.042Z,23.18
2019-05-02T07:58:58.858Z,23.23
2019-05-02T08:00:00.655Z,23.28
2019-05-02T08:00:58.014Z,23.33
2019-05-02T08:01:58.019Z,23.26
2019-05-02T08:02:59.413Z,23.32
2019-05-02T08:04:04.012Z,23.23
2019-05-02T08:04:57.965Z,23.34
2019-05-02T08:05:58.531Z,23.34
2019-05-02T08:06:57.952Z,23.34
2019-05-02T08:07:57.963Z,23.45
2019-05-02T08:09:01.694Z,23.33
2019-05-02T08:09:57.901Z,23.36
2019-05-02T08:11:01.843Z,23.37
2019-05-02T08:11:57.894Z,23.34
2019-05-02T08:12:57.886Z,23.42
2019-05-02T08:14:00.438Z,23.40
2019-05-02T08:15:00.298Z,23.37
2019-05-02T08:15:57.973Z,23.42
2019-05-02T08:17:05.299Z,23.34
2019-05-02T08:17:57.825Z,23.45
2019-05-02T08:19:01.442Z,23.32
2019-05-02T08:19:57.802Z,23.34
2019-05-02T08:20:57.819Z,23.45
2019-05-02T08:21:57.786Z,23.49
2019-05-02T08:22:57.780Z,23.32
2019-05-02T08:24:02.320Z,23.51
2019-05-02T08:25:00.303Z,23.45
2019-05-02T08:25:57.747Z,23.33
2019-05-02T08:26:58.389Z,23.47
2019-05-02T08:27:57.720Z,23.29
2019-05-02T08:29:00.301Z,23.37
2019-05-02T08:30:00.096Z,23.25
2019-05-02T08:30:57.686Z,23.36
2019-05-02T08:32:59.304Z,23.33
2019-05-02T08:33:57.652Z,23.34
2019-05-02T08:34:57.650Z,23.36
2019-05-02T08:35:57.626Z,23.42
2019-05-02T08:36:58.922Z,23.23
2019-05-02T08:37:57.608Z,23.25
2019-05-02T08:38:57.596Z,23.23
2019-05-02T08:39:57.599Z,23.36
2019-05-02T08:40:57.589Z,23.34
2019-05-02T08:41:57.941Z,23.36
2019-05-02T08:42:57.551Z,23.33
2019-05-02T08:43:57.543Z,23.34
2019-05-02T08:45:00.983Z,23.32
2019-05-02T08:45:57.546Z,23.47
2019-05-02T08:46:57.522Z,23.34
2019-05-02T08:48:00.177Z,23.40
2019-05-02T08:48:57.487Z,23.42
2019-05-02T08:49:57.503Z,23.42
2019-05-02T08:50:57.461Z,23.44
2019-05-02T08:51:57.483Z,23.42
2019-05-02T08:52:57.450Z,23.45
2019-05-02T08:53:58.680Z,23.47
2019-05-02T08:54:57.447Z,23.42
2019-05-02T08:55:57.419Z,23.45
2019-05-02T08:56:59.118Z,23.34
2019-05-02T08:58:00.299Z,23.44
2019-05-02T08:58:57.381Z,23.47
2019-05-02T09:00:00.185Z,23.45
2019-05-02T09:00:57.363Z,23.47
2019-05-02T09:02:00.792Z,23.45
2019-05-02T09:03:02.707Z,23.40
2019-05-02T09:03:57.326Z,23.45
2019-05-02T09:04:58.746Z,23.39
2019-05-02T09:06:05.491Z,23.37
2019-05-02T09:06:58.774Z,23.48
2019-05-02T09:07:57.798Z,23.45
2019-05-02T09:08:57.796Z,23.45
2019-05-02T09:10:00.182Z,23.45
2019-05-02T09:10:57.254Z,23.45
2019-05-02T09:12:08.974Z,23.44
2019-05-02T09:12:59.798Z,23.45
2019-05-02T09:13:57.249Z,23.45
2019-05-02T09:14:57.239Z,23.45
2019-05-02T09:15:57.196Z,23.48
2019-05-02T09:17:00.276Z,23.45
2019-05-02T09:17:57.180Z,23.45
2019-05-02T09:18:57.159Z,23.47
2019-05-02T09:20:02.364Z,23.45
2019-05-02T09:20:57.159Z,23.54
2019-05-02T09:21:57.143Z,23.55
2019-05-02T09:22:57.119Z,23.52
2019-05-02T09:23:57.110Z,23.58
2019-05-02T09:24:57.095Z,23.59
2019-05-02T09:25:57.120Z,23.48
2019-05-02T09:26:57.083Z,23.52
2019-05-02T09:27:57.068Z,23.54
2019-05-02T09:29:56.042Z,23.49
2019-05-02T09:31:02.036Z,23.54
2019-05-02T09:32:57.040Z,23.54
2019-05-02T09:33:57.006Z,23.54
2019-05-02T09:35:01.312Z,23.54
2019-05-02T09:35:59.800Z,23.56
2019-05-02T09:36:56.977Z,23.56
2019-05-02T09:37:56.955Z,23.48
2019-05-02T09:38:57.713Z,23.52
2019-05-02T09:39:56.936Z,23.52
2019-05-02T09:40:57.336Z,23.58
2019-05-02T09:41:56.904Z,23.54
2019-05-02T09:43:01.632Z,23.52
2019-05-02T09:43:56.895Z,23.55
2019-05-02T09:44:57.116Z,23.49
2019-05-02T09:45:56.878Z,23.59
2019-05-02T09:46:57.215Z,23.59
2019-05-02T09:48:05.174Z,23.55
2019-05-02T09:49:01.412Z,23.54
2019-05-02T09:49:56.829Z,23.49
2019-05-02T09:51:04.590Z,23.56
2019-05-02T09:51:59.702Z,23.56
2019-05-02T09:52:56.828Z,23.52
2019-05-02T09:53:57.060Z,23.54
2019-05-02T09:54:56.776Z,23.55
2019-05-02T09:55:58.065Z,23.64
2019-05-02T09:56:56.749Z,23.64
2019-05-02T09:57:57.291Z,23.55
2019-05-02T09:59:04.766Z,23.55
2019-05-02T09:59:56.724Z,23.56
2019-05-02T10:00:56.708Z,23.56
2019-05-02T10:01:56.700Z,23.67
2019-05-02T10:02:56.680Z,23.67
2019-05-02T10:03:56.841Z,23.64
2019-05-02T10:04:56.672Z,23.62
2019-05-02T10:05:56.640Z,23.58
2019-05-02T10:06:56.653Z,23.58
2019-05-02T10:07:57.555Z,23.64
2019-05-02T10:08:56.645Z,23.63
2019-05-02T10:09:57.717Z,23.64
2019-05-02T10:10:56.611Z,23.67
2019-05-02T10:11:56.581Z,23.66
2019-05-02T10:12:56.576Z,23.66
2019-05-02T10:13:56.597Z,23.69
2019-05-02T10:14:56.567Z,23.69
2019-05-02T10:15:56.555Z,23.77
2019-05-02T10:16:57.650Z,23.70
2019-05-02T10:18:07.801Z,23.73
2019-05-02T10:19:00.229Z,23.69
2019-05-02T10:19:57.272Z,23.70
2019-05-02T10:20:59.297Z,23.77
2019-05-02T10:21:56.528Z,23.73
2019-05-02T10:22:56.472Z,23.81
2019-05-02T10:23:59.564Z,23.82
2019-05-02T10:24:56.452Z,23.79
2019-05-02T10:25:56.436Z,23.84
2019-05-02T10:27:55.420Z,23.84
2019-05-02T10:28:56.424Z,23.85
2019-05-02T10:29:57.249Z,23.84
2019-05-02T10:30:56.881Z,23.84
2019-05-02T10:31:56.369Z,23.86
2019-05-02T10:32:57.347Z,23.86
2019-05-02T10:33:56.376Z,23.94
2019-05-02T10:34:56.934Z,23.94
2019-05-02T10:35:59.290Z,23.86
2019-05-02T10:36:58.881Z,23.89
2019-05-02T10:37:56.310Z,23.94
2019-05-02T10:38:59.170Z,23.96
2019-05-02T10:39:56.284Z,24.07
2019-05-02T10:41:57.542Z,24.04
2019-05-02T10:42:56.253Z,24.09
2019-05-02T10:43:59.347Z,24.06
2019-05-02T10:44:56.241Z,24.14
2019-05-02T10:45:56.622Z,24.21
2019-05-02T10:46:56.204Z,24.10
2019-05-02T10:47:56.791Z,24.13
2019-05-02T10:48:56.199Z,24.13
2019-05-02T10:49:56.195Z,24.16
2019-05-02T10:50:56.162Z,24.13
2019-05-02T10:51:56.155Z,24.18
2019-05-02T10:52:56.145Z,24.32
2019-05-02T10:53:56.741Z,24.31
2019-05-02T10:54:56.159Z,24.28
2019-05-02T10:55:56.119Z,24.31
2019-05-02T10:56:56.097Z,24.31
2019-05-02T10:57:56.094Z,24.31
2019-05-02T10:58:56.078Z,24.28
2019-05-02T10:59:56.327Z,24.31
2019-05-02T11:00:56.052Z,24.37
2019-05-02T11:01:56.049Z,24.29
2019-05-02T11:02:56.087Z,24.36
2019-05-02T11:03:56.035Z,24.32
2019-05-02T11:04:58.783Z,24.40
2019-05-02T11:06:56.692Z,24.31
2019-05-02T11:07:56.856Z,24.37
2019-05-02T11:08:55.994Z,24.40
2019-05-02T11:09:57.399Z,24.37
2019-05-02T11:10:55.953Z,24.37
2019-05-02T11:11:55.941Z,24.34
2019-05-02T11:12:56.786Z,24.40
2019-05-02T11:14:01.038Z,24.40
2019-05-02T11:14:55.927Z,24.37
2019-05-02T11:15:55.903Z,24.46
2019-05-02T11:16:56.898Z,24.38
2019-05-02T11:17:55.880Z,24.46
2019-05-02T11:18:55.862Z,24.41
2019-05-02T11:19:55.888Z,24.47
2019-05-02T11:20:59.139Z,24.41
2019-05-02T11:21:59.012Z,24.47
2019-05-02T11:22:55.828Z,24.43
2019-05-02T11:23:55.954Z,24.47
2019-05-02T11:24:55.795Z,24.38
2019-05-02T11:25:55.813Z,24.41
2019-05-02T11:26:55.776Z,24.50
2019-05-02T11:27:57.324Z,24.44
2019-05-02T11:28:55.765Z,24.53
2019-05-02T11:29:58.277Z,24.43
2019-05-02T11:30:57.039Z,24.48
2019-05-02T11:31:55.718Z,24.55
2019-05-02T11:32:55.712Z,24.47
2019-05-02T11:33:55.707Z,24.55
2019-05-02T11:34:55.697Z,24.56
2019-05-02T11:35:55.694Z,24.51
2019-05-02T11:36:55.681Z,24.55
2019-05-02T11:37:55.658Z,24.59
2019-05-02T11:39:03.303Z,24.62
2019-05-02T11:40:00.075Z,24.51
2019-05-02T11:40:55.641Z,24.62
2019-05-02T11:42:57.191Z,24.55
2019-05-02T11:43:55.897Z,24.65
2019-05-02T11:44:55.587Z,24.56
2019-05-02T11:46:05.530Z,24.62
2019-05-02T11:46:58.280Z,24.62
2019-05-02T11:48:01.690Z,24.69
2019-05-02T11:48:58.551Z,24.56
2019-05-02T11:49:56.049Z,24.56
2019-05-02T11:50:58.065Z,24.55
2019-05-02T11:51:57.219Z,24.46
2019-05-02T11:52:55.494Z,24.50
2019-05-02T11:53:59.245Z,24.43
2019-05-02T11:54:55.472Z,24.47
2019-05-02T11:55:58.442Z,24.43
2019-05-02T11:56:55.478Z,24.38
2019-05-02T11:57:55.435Z,24.31
2019-05-02T11:58:56.279Z,24.40
2019-05-02T11:59:59.404Z,24.32
2019-05-02T12:00:56.322Z,24.31
2019-05-02T12:01:59.742Z,24.28
2019-05-02T12:02:58.171Z,24.24
2019-05-02T12:03:55.380Z,24.18
2019-05-02T12:04:55.657Z,24.11
2019-05-02T12:05:55.392Z,24.18
2019-05-02T12:07:00.931Z,24.14
2019-05-02T12:07:55.334Z,24.13
2019-05-02T12:08:55.323Z,24.10
2019-05-02T12:09:57.014Z,24.10
2019-05-02T12:10:55.304Z,24.16
2019-05-02T12:11:56.732Z,24.11
2019-05-02T12:12:55.277Z,24.13
2019-05-02T12:13:57.093Z,24.14
2019-05-02T12:14:55.265Z,24.09
2019-05-02T12:15:55.323Z,24.11
2019-05-02T12:16:55.324Z,24.07
2019-05-02T12:19:54.225Z,24.01
2019-05-02T12:20:55.212Z,24.03
2019-05-02T12:21:55.211Z,24.00
2019-05-02T12:22:55.175Z,24.06
2019-05-02T12:23:55.162Z,24.07
2019-05-02T12:24:55.796Z,24.01
2019-05-02T12:25:55.141Z,24.03
2019-05-02T12:26:55.165Z,24.01
2019-05-02T12:27:55.121Z,24.06
2019-05-02T12:28:55.109Z,24.03
2019-05-02T12:29:57.991Z,24.04
2019-05-02T12:30:55.093Z,24.04
2019-05-02T12:31:56.516Z,24.06
2019-05-02T12:32:55.148Z,24.04
2019-05-02T12:33:55.063Z,24.06
2019-05-02T12:34:55.775Z,24.07
2019-05-02T12:35:55.782Z,24.04
2019-05-02T12:36:55.019Z,24.03
2019-05-02T12:37:55.346Z,24.00
2019-05-02T12:38:56.271Z,24.03
2019-05-02T12:39:54.990Z,24.03
2019-05-02T12:40:57.832Z,24.06
2019-05-02T12:41:55.430Z,24.03
2019-05-02T12:42:55.000Z,24.14
2019-05-02T12:43:54.935Z,24.13
2019-05-02T12:44:57.775Z,24.11
2019-05-02T12:45:54.977Z,24.10
2019-05-02T12:46:54.907Z,24.24
2019-05-02T12:47:57.770Z,24.24
2019-05-02T12:48:54.889Z,24.13
2019-05-02T12:49:54.884Z,24.16
2019-05-02T12:50:54.865Z,24.11
2019-05-02T12:51:54.889Z,24.13
2019-05-02T12:52:55.761Z,24.09
2019-05-02T12:53:54.852Z,24.11
2019-05-02T12:54:54.828Z,24.16
2019-05-02T12:55:54.814Z,24.10
2019-05-02T12:56:54.805Z,24.13
2019-05-02T12:57:54.811Z,24.18
2019-05-02T12:58:54.796Z,24.06
2019-05-02T12:59:54.775Z,24.04
2019-05-02T13:00:54.760Z,24.11
2019-05-02T13:01:54.746Z,24.13
2019-05-02T13:02:54.736Z,24.21
2019-05-02T13:03:54.754Z,24.16
2019-05-02T13:04:54.709Z,24.28
2019-05-02T13:05:54.710Z,24.18
2019-05-02T13:06:54.701Z,24.19
2019-05-02T13:07:55.546Z,24.29
2019-05-02T13:08:57.271Z,24.26
2019-05-02T13:09:54.656Z,24.18
2019-05-02T13:11:01.881Z,24.34